sensor_id;sensor_type;location;lat;lon;timestamp;temperature;humidity
37446;DHT22;23307;51.136;14.942;2023-06-24T00:02:10;15.60;99.90
37446;DHT22;23307;51.136;14.942;2023-06-24T00:04:36;15.70;99.90
37446;DHT22;23307;51.136;14.942;2023-06-24T00:07:01;15.80;99.90
37446;DHT22;23307;51.136;14.942;2023-06-24T00:09:27;15.80;99.90
37446;DHT22;23307;51.136;14.942;2023-06-24T00:11:54;15.90;99.90
37446;DHT22;23307;51.136;14.942;2023-06-24T00:14:20;15.80;99.90
37446;DHT22;23307;51.136;14.942;2023-06-24T00:16:46;15.90;99.90
37446;DHT22;23307;51.136;14.942;2023-06-24T00:19:19;15.90;99.90
37446;DHT22;23307;51.136;14.942;2023-06-24T00:21:45;15.90;99.90
37446;DHT22;23307;51.136;14.942;2023-06-24T00:24:10;16.00;99.90
37446;DHT22;23307;51.136;14.942;2023-06-24T00:26:36;16.00;99.90
37446;DHT22;23307;51.136;14.942;2023-06-24T00:29:01;16.10;99.90
37446;DHT22;23307;51.136;14.942;2023-06-24T00:31:27;16.00;99.90
37446;DHT22;23307;51.136;14.942;2023-06-24T00:33:52;16.00;99.90
37446;DHT22;23307;51.136;14.942;2023-06-24T00:36:18;16.00;99.90
37446;DHT22;23307;51.136;14.942;2023-06-24T00:38:43;16.00;99.90
37446;DHT22;23307;51.136;14.942;2023-06-24T00:41:09;15.90;99.90
37446;DHT22;23307;51.136;14.942;2023-06-24T00:43:35;15.90;99.90
37446;DHT22;23307;51.136;14.942;2023-06-24T00:46:01;15.90;99.90
37446;DHT22;23307;51.136;14.942;2023-06-24T00:48:26;15.90;99.90
37446;DHT22;23307;51.136;14.942;2023-06-24T00:50:52;15.90;99.90
37446;DHT22;23307;51.136;14.942;2023-06-24T00:53:18;15.90;99.90
37446;DHT22;23307;51.136;14.942;2023-06-24T00:55:45;15.90;99.90
37446;DHT22;23307;51.136;14.942;2023-06-24T00:58:12;15.90;99.90
37446;DHT22;23307;51.136;14.942;2023-06-24T01:00:44;15.90;99.90
37446;DHT22;23307;51.136;14.942;2023-06-24T01:03:11;15.90;99.90
37446;DHT22;23307;51.136;14.942;2023-06-24T01:05:44;15.80;99.90
37446;DHT22;23307;51.136;14.942;2023-06-24T01:08:10;15.80;99.90
37446;DHT22;23307;51.136;14.942;2023-06-24T01:10:43;15.90;99.90
37446;DHT22;23307;51.136;14.942;2023-06-24T01:13:09;15.90;99.90
37446;DHT22;23307;51.136;14.942;2023-06-24T01:15:35;15.90;99.90
37446;DHT22;23307;51.136;14.942;2023-06-24T01:20:49;15.90;99.90
37446;DHT22;23307;51.136;14.942;2023-06-24T01:23:40;15.90;99.90
37446;DHT22;23307;51.136;14.942;2023-06-24T01:26:32;16.00;99.90
37446;DHT22;23307;51.136;14.942;2023-06-24T01:32:11;16.10;99.90
37446;DHT22;23307;51.136;14.942;2023-06-24T01:35:00;16.20;99.90
37446;DHT22;23307;51.136;14.942;2023-06-24T01:37:35;16.30;99.90
37446;DHT22;23307;51.136;14.942;2023-06-24T01:40:11;16.30;99.90
37446;DHT22;23307;51.136;14.942;2023-06-24T01:42:39;16.40;99.90
37446;DHT22;23307;51.136;14.942;2023-06-24T01:45:07;16.50;99.90
37446;DHT22;23307;51.136;14.942;2023-06-24T01:47:35;16.50;99.90
37446;DHT22;23307;51.136;14.942;2023-06-24T01:50:02;16.50;99.90
37446;DHT22;23307;51.136;14.942;2023-06-24T01:52:29;16.60;99.90
37446;DHT22;23307;51.136;14.942;2023-06-24T01:54:56;16.60;99.90
37446;DHT22;23307;51.136;14.942;2023-06-24T01:57:24;16.60;99.90
37446;DHT22;23307;51.136;14.942;2023-06-24T01:59:53;16.70;99.90
37446;DHT22;23307;51.136;14.942;2023-06-24T02:02:19;16.70;99.90
37446;DHT22;23307;51.136;14.942;2023-06-24T02:04:45;16.60;99.90
37446;DHT22;23307;51.136;14.942;2023-06-24T02:07:13;16.60;99.90
37446;DHT22;23307;51.136;14.942;2023-06-24T02:09:39;16.70;99.90
37446;DHT22;23307;51.136;14.942;2023-06-24T02:12:06;16.70;99.90
37446;DHT22;23307;51.136;14.942;2023-06-24T02:14:35;16.70;99.90
37446;DHT22;23307;51.136;14.942;2023-06-24T02:17:04;16.70;99.90
37446;DHT22;23307;51.136;14.942;2023-06-24T02:19:30;16.70;99.90
37446;DHT22;23307;51.136;14.942;2023-06-24T02:21:57;16.80;99.90
37446;DHT22;23307;51.136;14.942;2023-06-24T02:24:24;16.80;99.90
37446;DHT22;23307;51.136;14.942;2023-06-24T02:26:51;16.80;99.90
37446;DHT22;23307;51.136;14.942;2023-06-24T02:29:18;16.80;99.90
37446;DHT22;23307;51.136;14.942;2023-06-24T02:31:45;16.90;99.90
37446;DHT22;23307;51.136;14.942;2023-06-24T02:34:10;16.90;99.90
37446;DHT22;23307;51.136;14.942;2023-06-24T02:36:36;16.90;99.90
37446;DHT22;23307;51.136;14.942;2023-06-24T02:39:01;16.80;99.90
37446;DHT22;23307;51.136;14.942;2023-06-24T02:41:27;16.80;99.90
37446;DHT22;23307;51.136;14.942;2023-06-24T02:43:53;16.80;99.90
37446;DHT22;23307;51.136;14.942;2023-06-24T02:46:19;16.90;99.90
37446;DHT22;23307;51.136;14.942;2023-06-24T02:48:46;16.90;99.90
37446;DHT22;23307;51.136;14.942;2023-06-24T02:51:13;16.90;99.90
37446;DHT22;23307;51.136;14.942;2023-06-24T02:53:39;16.90;99.90
37446;DHT22;23307;51.136;14.942;2023-06-24T02:56:06;16.90;99.90
37446;DHT22;23307;51.136;14.942;2023-06-24T02:58:33;16.90;99.90
37446;DHT22;23307;51.136;14.942;2023-06-24T03:01:01;16.90;99.90
37446;DHT22;23307;51.136;14.942;2023-06-24T03:03:29;16.90;99.90
37446;DHT22;23307;51.136;14.942;2023-06-24T03:05:55;17.00;99.90
37446;DHT22;23307;51.136;14.942;2023-06-24T03:08:24;17.00;99.90
37446;DHT22;23307;51.136;14.942;2023-06-24T03:10:54;16.90;99.90
37446;DHT22;23307;51.136;14.942;2023-06-24T03:13:20;16.90;99.90
37446;DHT22;23307;51.136;14.942;2023-06-24T03:15:45;16.90;99.90
37446;DHT22;23307;51.136;14.942;2023-06-24T03:18:11;16.90;99.90
37446;DHT22;23307;51.136;14.942;2023-06-24T03:20:37;16.90;99.90
37446;DHT22;23307;51.136;14.942;2023-06-24T03:23:05;16.90;99.90
37446;DHT22;23307;51.136;14.942;2023-06-24T03:25:32;16.90;99.90
37446;DHT22;23307;51.136;14.942;2023-06-24T03:27:57;16.90;99.90
37446;DHT22;23307;51.136;14.942;2023-06-24T03:30:23;16.90;99.90
37446;DHT22;23307;51.136;14.942;2023-06-24T03:32:49;16.90;99.90
37446;DHT22;23307;51.136;14.942;2023-06-24T03:35:14;16.90;99.90
37446;DHT22;23307;51.136;14.942;2023-06-24T03:37:40;16.80;99.90
37446;DHT22;23307;51.136;14.942;2023-06-24T03:40:06;16.80;99.90
37446;DHT22;23307;51.136;14.942;2023-06-24T03:42:33;16.90;99.90
37446;DHT22;23307;51.136;14.942;2023-06-24T03:44:58;16.90;99.90
37446;DHT22;23307;51.136;14.942;2023-06-24T03:47:24;16.90;99.90
37446;DHT22;23307;51.136;14.942;2023-06-24T03:49:49;16.90;99.90
37446;DHT22;23307;51.136;14.942;2023-06-24T03:52:16;17.00;99.90
37446;DHT22;23307;51.136;14.942;2023-06-24T03:54:41;17.00;99.90
37446;DHT22;23307;51.136;14.942;2023-06-24T03:57:07;17.00;99.90
37446;DHT22;23307;51.136;14.942;2023-06-24T03:59:34;17.00;99.90
37446;DHT22;23307;51.136;14.942;2023-06-24T04:01:59;17.00;99.90
37446;DHT22;23307;51.136;14.942;2023-06-24T04:04:26;17.10;99.90
37446;DHT22;23307;51.136;14.942;2023-06-24T04:06:51;17.10;99.90
37446;DHT22;23307;51.136;14.942;2023-06-24T04:09:17;17.10;99.90
37446;DHT22;23307;51.136;14.942;2023-06-24T04:11:42;17.20;99.90
37446;DHT22;23307;51.136;14.942;2023-06-24T04:14:08;17.20;99.90
37446;DHT22;23307;51.136;14.942;2023-06-24T04:16:35;17.30;99.90
37446;DHT22;23307;51.136;14.942;2023-06-24T04:19:00;17.20;99.90
37446;DHT22;23307;51.136;14.942;2023-06-24T04:21:26;17.30;99.90
37446;DHT22;23307;51.136;14.942;2023-06-24T04:23:52;17.40;99.90
37446;DHT22;23307;51.136;14.942;2023-06-24T04:26:18;17.40;99.90
37446;DHT22;23307;51.136;14.942;2023-06-24T04:28:43;17.40;99.90
37446;DHT22;23307;51.136;14.942;2023-06-24T04:31:08;17.40;99.90
37446;DHT22;23307;51.136;14.942;2023-06-24T04:33:34;17.40;99.90
37446;DHT22;23307;51.136;14.942;2023-06-24T04:35:59;17.50;99.90
37446;DHT22;23307;51.136;14.942;2023-06-24T04:38:25;17.50;99.90
37446;DHT22;23307;51.136;14.942;2023-06-24T04:40:51;17.50;99.90
37446;DHT22;23307;51.136;14.942;2023-06-24T04:43:16;17.50;99.90
37446;DHT22;23307;51.136;14.942;2023-06-24T04:45:42;17.50;99.90
37446;DHT22;23307;51.136;14.942;2023-06-24T04:48:07;17.50;99.90
37446;DHT22;23307;51.136;14.942;2023-06-24T04:50:33;17.60;99.90
37446;DHT22;23307;51.136;14.942;2023-06-24T04:52:58;17.60;99.90
37446;DHT22;23307;51.136;14.942;2023-06-24T04:55:26;17.60;99.90
37446;DHT22;23307;51.136;14.942;2023-06-24T04:57:51;17.60;99.90
37446;DHT22;23307;51.136;14.942;2023-06-24T05:00:17;17.60;99.90
37446;DHT22;23307;51.136;14.942;2023-06-24T05:02:42;17.60;99.90
37446;DHT22;23307;51.136;14.942;2023-06-24T05:05:08;17.70;99.90
37446;DHT22;23307;51.136;14.942;2023-06-24T05:07:33;17.70;99.90
37446;DHT22;23307;51.136;14.942;2023-06-24T05:09:59;17.80;99.90
37446;DHT22;23307;51.136;14.942;2023-06-24T05:12:24;17.80;99.90
37446;DHT22;23307;51.136;14.942;2023-06-24T05:14:51;17.90;99.90
37446;DHT22;23307;51.136;14.942;2023-06-24T05:17:19;17.90;99.90
37446;DHT22;23307;51.136;14.942;2023-06-24T05:19:45;18.00;99.90
37446;DHT22;23307;51.136;14.942;2023-06-24T05:22:11;18.00;99.90
37446;DHT22;23307;51.136;14.942;2023-06-24T05:24:36;18.00;99.90
37446;DHT22;23307;51.136;14.942;2023-06-24T05:27:05;18.00;99.90
37446;DHT22;23307;51.136;14.942;2023-06-24T05:29:32;18.10;99.90
37446;DHT22;23307;51.136;14.942;2023-06-24T05:31:58;18.10;99.90
37446;DHT22;23307;51.136;14.942;2023-06-24T05:34:24;18.10;99.90
37446;DHT22;23307;51.136;14.942;2023-06-24T05:36:49;18.20;99.90
37446;DHT22;23307;51.136;14.942;2023-06-24T05:39:15;18.30;99.90
37446;DHT22;23307;51.136;14.942;2023-06-24T05:41:40;18.30;99.90
37446;DHT22;23307;51.136;14.942;2023-06-24T05:44:09;18.40;99.90
37446;DHT22;23307;51.136;14.942;2023-06-24T05:46:37;18.50;99.90
37446;DHT22;23307;51.136;14.942;2023-06-24T05:49:03;18.60;99.90
37446;DHT22;23307;51.136;14.942;2023-06-24T05:51:29;18.70;99.90
37446;DHT22;23307;51.136;14.942;2023-06-24T05:53:54;18.70;99.90
37446;DHT22;23307;51.136;14.942;2023-06-24T05:56:21;18.80;99.90
37446;DHT22;23307;51.136;14.942;2023-06-24T05:58:47;18.70;99.90
37446;DHT22;23307;51.136;14.942;2023-06-24T06:01:13;18.70;99.90
37446;DHT22;23307;51.136;14.942;2023-06-24T06:03:39;18.70;99.90
37446;DHT22;23307;51.136;14.942;2023-06-24T06:06:04;18.70;99.90
37446;DHT22;23307;51.136;14.942;2023-06-24T06:08:30;18.70;99.90
37446;DHT22;23307;51.136;14.942;2023-06-24T06:10:56;18.70;99.90
37446;DHT22;23307;51.136;14.942;2023-06-24T06:13:21;18.60;99.90
37446;DHT22;23307;51.136;14.942;2023-06-24T06:15:47;18.70;99.90
37446;DHT22;23307;51.136;14.942;2023-06-24T06:18:12;18.70;99.90
37446;DHT22;23307;51.136;14.942;2023-06-24T06:20:38;18.80;99.90
37446;DHT22;23307;51.136;14.942;2023-06-24T06:23:03;18.80;99.90
37446;DHT22;23307;51.136;14.942;2023-06-24T06:25:29;18.90;99.90
37446;DHT22;23307;51.136;14.942;2023-06-24T06:27:54;19.00;99.90
37446;DHT22;23307;51.136;14.942;2023-06-24T06:30:20;19.10;99.90
37446;DHT22;23307;51.136;14.942;2023-06-24T06:32:45;19.20;99.90
37446;DHT22;23307;51.136;14.942;2023-06-24T06:35:11;19.20;99.90
37446;DHT22;23307;51.136;14.942;2023-06-24T06:37:36;19.20;99.90
37446;DHT22;23307;51.136;14.942;2023-06-24T06:40:02;19.10;99.90
37446;DHT22;23307;51.136;14.942;2023-06-24T06:42:29;19.10;99.90
37446;DHT22;23307;51.136;14.942;2023-06-24T06:44:55;19.00;99.90
37446;DHT22;23307;51.136;14.942;2023-06-24T06:47:20;19.10;99.90
37446;DHT22;23307;51.136;14.942;2023-06-24T06:49:46;19.20;99.90
37446;DHT22;23307;51.136;14.942;2023-06-24T06:52:11;19.20;99.90
37446;DHT22;23307;51.136;14.942;2023-06-24T06:54:37;19.20;99.90
37446;DHT22;23307;51.136;14.942;2023-06-24T06:57:03;19.30;99.90
37446;DHT22;23307;51.136;14.942;2023-06-24T06:59:32;19.30;99.90
37446;DHT22;23307;51.136;14.942;2023-06-24T07:01:58;19.40;99.90
37446;DHT22;23307;51.136;14.942;2023-06-24T07:04:24;19.60;99.90
37446;DHT22;23307;51.136;14.942;2023-06-24T07:06:49;19.70;99.90
37446;DHT22;23307;51.136;14.942;2023-06-24T07:09:15;19.70;99.90
37446;DHT22;23307;51.136;14.942;2023-06-24T07:11:42;19.80;99.90
37446;DHT22;23307;51.136;14.942;2023-06-24T07:14:07;19.80;99.90
37446;DHT22;23307;51.136;14.942;2023-06-24T07:16:33;19.90;99.90
37446;DHT22;23307;51.136;14.942;2023-06-24T07:18:58;19.90;99.90
37446;DHT22;23307;51.136;14.942;2023-06-24T07:21:24;19.90;99.90
37446;DHT22;23307;51.136;14.942;2023-06-24T07:23:49;19.90;99.90
37446;DHT22;23307;51.136;14.942;2023-06-24T07:26:15;20.20;99.90
37446;DHT22;23307;51.136;14.942;2023-06-24T07:28:40;20.50;99.90
37446;DHT22;23307;51.136;14.942;2023-06-24T07:31:06;20.70;99.90
37446;DHT22;23307;51.136;14.942;2023-06-24T07:33:31;20.60;99.90
37446;DHT22;23307;51.136;14.942;2023-06-24T07:35:57;20.40;99.90
37446;DHT22;23307;51.136;14.942;2023-06-24T07:38:22;20.30;99.90
37446;DHT22;23307;51.136;14.942;2023-06-24T07:40:48;20.20;99.90
37446;DHT22;23307;51.136;14.942;2023-06-24T07:43:14;20.10;99.90
37446;DHT22;23307;51.136;14.942;2023-06-24T07:45:40;20.20;99.90
37446;DHT22;23307;51.136;14.942;2023-06-24T07:48:05;20.40;99.90
37446;DHT22;23307;51.136;14.942;2023-06-24T07:50:32;20.60;99.90
37446;DHT22;23307;51.136;14.942;2023-06-24T07:52:58;20.80;99.90
37446;DHT22;23307;51.136;14.942;2023-06-24T07:55:23;20.90;99.90
37446;DHT22;23307;51.136;14.942;2023-06-24T07:57:49;21.20;99.90
37446;DHT22;23307;51.136;14.942;2023-06-24T08:00:15;21.40;99.90
37446;DHT22;23307;51.136;14.942;2023-06-24T08:02:41;21.50;99.90
37446;DHT22;23307;51.136;14.942;2023-06-24T08:05:07;21.50;99.90
37446;DHT22;23307;51.136;14.942;2023-06-24T08:07:33;21.50;99.90
37446;DHT22;23307;51.136;14.942;2023-06-24T08:09:58;21.40;99.90
37446;DHT22;23307;51.136;14.942;2023-06-24T08:12:24;21.20;99.90
37446;DHT22;23307;51.136;14.942;2023-06-24T08:14:49;21.30;99.90
37446;DHT22;23307;51.136;14.942;2023-06-24T08:17:14;21.60;99.90
37446;DHT22;23307;51.136;14.942;2023-06-24T08:19:40;21.80;99.90
37446;DHT22;23307;51.136;14.942;2023-06-24T08:22:05;21.50;99.90
37446;DHT22;23307;51.136;14.942;2023-06-24T08:24:31;21.20;99.90
37446;DHT22;23307;51.136;14.942;2023-06-24T08:26:57;21.40;99.90
37446;DHT22;23307;51.136;14.942;2023-06-24T08:29:22;21.60;99.90
37446;DHT22;23307;51.136;14.942;2023-06-24T08:31:48;21.70;99.90
37446;DHT22;23307;51.136;14.942;2023-06-24T08:34:13;21.70;99.90
37446;DHT22;23307;51.136;14.942;2023-06-24T08:36:39;21.70;99.90
37446;DHT22;23307;51.136;14.942;2023-06-24T08:39:04;21.80;99.90
37446;DHT22;23307;51.136;14.942;2023-06-24T08:41:30;21.80;99.90
37446;DHT22;23307;51.136;14.942;2023-06-24T08:43:56;21.80;99.90
37446;DHT22;23307;51.136;14.942;2023-06-24T08:46:24;22.00;99.90
37446;DHT22;23307;51.136;14.942;2023-06-24T08:48:54;22.20;99.90
37446;DHT22;23307;51.136;14.942;2023-06-24T08:51:24;22.50;99.90
37446;DHT22;23307;51.136;14.942;2023-06-24T08:53:52;22.60;99.90
37446;DHT22;23307;51.136;14.942;2023-06-24T08:56:18;22.90;99.90
37446;DHT22;23307;51.136;14.942;2023-06-24T08:58:44;23.10;99.90
37446;DHT22;23307;51.136;14.942;2023-06-24T09:01:11;23.30;99.90
37446;DHT22;23307;51.136;14.942;2023-06-24T09:03:36;23.40;99.90
37446;DHT22;23307;51.136;14.942;2023-06-24T09:06:02;23.40;99.90
37446;DHT22;23307;51.136;14.942;2023-06-24T09:08:27;23.40;99.90
37446;DHT22;23307;51.136;14.942;2023-06-24T09:10:54;23.60;99.90
37446;DHT22;23307;51.136;14.942;2023-06-24T09:13:34;23.40;99.90
37446;DHT22;23307;51.136;14.942;2023-06-24T09:16:12;23.10;99.90
37446;DHT22;23307;51.136;14.942;2023-06-24T09:18:38;22.90;99.90
37446;DHT22;23307;51.136;14.942;2023-06-24T09:21:04;22.90;99.90
37446;DHT22;23307;51.136;14.942;2023-06-24T09:23:29;23.20;99.90
37446;DHT22;23307;51.136;14.942;2023-06-24T09:26:00;23.30;99.90
37446;DHT22;23307;51.136;14.942;2023-06-24T09:28:28;23.20;99.90
37446;DHT22;23307;51.136;14.942;2023-06-24T09:31:07;23.20;99.90
37446;DHT22;23307;51.136;14.942;2023-06-24T09:33:33;23.40;99.90
37446;DHT22;23307;51.136;14.942;2023-06-24T09:36:02;23.70;99.90
37446;DHT22;23307;51.136;14.942;2023-06-24T09:38:37;23.90;99.90
37446;DHT22;23307;51.136;14.942;2023-06-24T09:41:04;24.40;99.90
37446;DHT22;23307;51.136;14.942;2023-06-24T09:43:30;24.50;99.90
37446;DHT22;23307;51.136;14.942;2023-06-24T09:45:58;24.50;99.90
37446;DHT22;23307;51.136;14.942;2023-06-24T09:48:26;24.40;99.90
37446;DHT22;23307;51.136;14.942;2023-06-24T09:50:51;24.30;99.90
37446;DHT22;23307;51.136;14.942;2023-06-24T09:53:17;24.10;99.90
37446;DHT22;23307;51.136;14.942;2023-06-24T09:55:43;23.90;99.90
37446;DHT22;23307;51.136;14.942;2023-06-24T09:58:13;23.60;99.90
37446;DHT22;23307;51.136;14.942;2023-06-24T10:00:39;23.40;99.90
37446;DHT22;23307;51.136;14.942;2023-06-24T10:03:04;23.40;99.90
37446;DHT22;23307;51.136;14.942;2023-06-24T10:05:30;23.40;99.90
37446;DHT22;23307;51.136;14.942;2023-06-24T10:07:56;23.60;99.90
37446;DHT22;23307;51.136;14.942;2023-06-24T10:10:21;23.60;99.90
37446;DHT22;23307;51.136;14.942;2023-06-24T10:12:47;23.40;99.90
37446;DHT22;23307;51.136;14.942;2023-06-24T10:15:12;23.30;99.90
37446;DHT22;23307;51.136;14.942;2023-06-24T10:17:39;23.10;99.90
37446;DHT22;23307;51.136;14.942;2023-06-24T10:20:05;23.20;99.90
37446;DHT22;23307;51.136;14.942;2023-06-24T10:22:34;23.40;99.90
37446;DHT22;23307;51.136;14.942;2023-06-24T10:25:04;23.60;99.90
37446;DHT22;23307;51.136;14.942;2023-06-24T10:27:38;23.60;99.90
37446;DHT22;23307;51.136;14.942;2023-06-24T10:30:04;23.80;99.90
37446;DHT22;23307;51.136;14.942;2023-06-24T10:32:42;24.10;99.90
37446;DHT22;23307;51.136;14.942;2023-06-24T10:35:24;24.30;99.90
37446;DHT22;23307;51.136;14.942;2023-06-24T10:37:57;24.00;99.90
37446;DHT22;23307;51.136;14.942;2023-06-24T10:40:40;23.80;99.90
37446;DHT22;23307;51.136;14.942;2023-06-24T10:43:26;23.80;99.90
37446;DHT22;23307;51.136;14.942;2023-06-24T10:45:54;24.00;99.90
37446;DHT22;23307;51.136;14.942;2023-06-24T10:48:20;24.20;99.90
37446;DHT22;23307;51.136;14.942;2023-06-24T10:50:46;24.40;99.90
37446;DHT22;23307;51.136;14.942;2023-06-24T10:53:13;24.70;99.90
37446;DHT22;23307;51.136;14.942;2023-06-24T10:55:39;25.00;99.90
37446;DHT22;23307;51.136;14.942;2023-06-24T10:58:08;25.00;99.90
37446;DHT22;23307;51.136;14.942;2023-06-24T11:00:34;24.80;99.90
37446;DHT22;23307;51.136;14.942;2023-06-24T11:03:16;24.20;99.90
37446;DHT22;23307;51.136;14.942;2023-06-24T11:05:45;24.20;99.90
37446;DHT22;23307;51.136;14.942;2023-06-24T11:08:12;24.60;99.90
37446;DHT22;23307;51.136;14.942;2023-06-24T11:10:48;25.00;99.90
37446;DHT22;23307;51.136;14.942;2023-06-24T11:13:14;24.90;99.90
37446;DHT22;23307;51.136;14.942;2023-06-24T11:15:40;24.60;99.90
37446;DHT22;23307;51.136;14.942;2023-06-24T11:18:08;24.60;99.90
37446;DHT22;23307;51.136;14.942;2023-06-24T11:20:36;24.70;99.90
37446;DHT22;23307;51.136;14.942;2023-06-24T11:23:05;24.80;99.90
37446;DHT22;23307;51.136;14.942;2023-06-24T11:25:31;25.10;99.90
37446;DHT22;23307;51.136;14.942;2023-06-24T11:27:57;25.20;99.90
37446;DHT22;23307;51.136;14.942;2023-06-24T11:30:22;25.20;99.90
37446;DHT22;23307;51.136;14.942;2023-06-24T11:32:48;25.30;99.90
37446;DHT22;23307;51.136;14.942;2023-06-24T11:35:15;25.20;99.90
37446;DHT22;23307;51.136;14.942;2023-06-24T11:37:42;25.30;99.90
37446;DHT22;23307;51.136;14.942;2023-06-24T11:40:09;25.20;99.90
37446;DHT22;23307;51.136;14.942;2023-06-24T11:42:40;24.80;99.90
37446;DHT22;23307;51.136;14.942;2023-06-24T11:45:07;24.70;99.90
37446;DHT22;23307;51.136;14.942;2023-06-24T11:47:37;24.90;99.90
37446;DHT22;23307;51.136;14.942;2023-06-24T11:50:04;25.00;99.90
37446;DHT22;23307;51.136;14.942;2023-06-24T11:55:03;25.40;99.90
37446;DHT22;23307;51.136;14.942;2023-06-24T12:02:50;25.70;99.90
37446;DHT22;23307;51.136;14.942;2023-06-24T12:05:33;25.60;99.90
37446;DHT22;23307;51.136;14.942;2023-06-24T12:08:04;25.70;99.90
37446;DHT22;23307;51.136;14.942;2023-06-24T12:10:30;25.90;99.90
37446;DHT22;23307;51.136;14.942;2023-06-24T12:12:59;25.90;99.90
37446;DHT22;23307;51.136;14.942;2023-06-24T12:15:25;25.80;99.90
37446;DHT22;23307;51.136;14.942;2023-06-24T12:17:50;25.50;99.90
37446;DHT22;23307;51.136;14.942;2023-06-24T12:20:16;25.20;99.90
37446;DHT22;23307;51.136;14.942;2023-06-24T12:22:44;25.20;99.90
37446;DHT22;23307;51.136;14.942;2023-06-24T12:25:10;25.20;99.90
37446;DHT22;23307;51.136;14.942;2023-06-24T12:27:35;25.40;99.90
37446;DHT22;23307;51.136;14.942;2023-06-24T12:30:01;25.30;99.90
37446;DHT22;23307;51.136;14.942;2023-06-24T12:32:27;25.40;99.90
37446;DHT22;23307;51.136;14.942;2023-06-24T12:34:53;25.40;99.90
37446;DHT22;23307;51.136;14.942;2023-06-24T12:37:19;25.40;99.90
37446;DHT22;23307;51.136;14.942;2023-06-24T12:39:44;25.70;99.90
37446;DHT22;23307;51.136;14.942;2023-06-24T12:42:10;25.60;99.90
37446;DHT22;23307;51.136;14.942;2023-06-24T12:44:36;25.70;99.90
37446;DHT22;23307;51.136;14.942;2023-06-24T12:47:01;25.80;99.90
37446;DHT22;23307;51.136;14.942;2023-06-24T12:49:28;26.20;99.90
37446;DHT22;23307;51.136;14.942;2023-06-24T12:51:53;26.50;99.90
37446;DHT22;23307;51.136;14.942;2023-06-24T12:54:18;26.30;99.90
37446;DHT22;23307;51.136;14.942;2023-06-24T12:56:44;26.50;99.90
37446;DHT22;23307;51.136;14.942;2023-06-24T12:59:09;26.90;99.90
37446;DHT22;23307;51.136;14.942;2023-06-24T13:01:35;26.90;98.10
37446;DHT22;23307;51.136;14.942;2023-06-24T13:04:00;27.00;98.70
37446;DHT22;23307;51.136;14.942;2023-06-24T13:06:26;26.70;97.90
37446;DHT22;23307;51.136;14.942;2023-06-24T13:08:52;26.50;98.20
37446;DHT22;23307;51.136;14.942;2023-06-24T13:11:18;26.60;98.40
37446;DHT22;23307;51.136;14.942;2023-06-24T13:13:43;26.40;98.70
37446;DHT22;23307;51.136;14.942;2023-06-24T13:16:09;26.60;99.80
37446;DHT22;23307;51.136;14.942;2023-06-24T13:18:34;26.80;98.10
37446;DHT22;23307;51.136;14.942;2023-06-24T13:21:00;26.80;99.40
37446;DHT22;23307;51.136;14.942;2023-06-24T13:23:25;26.80;98.20
37446;DHT22;23307;51.136;14.942;2023-06-24T13:25:51;26.70;97.70
37446;DHT22;23307;51.136;14.942;2023-06-24T13:28:16;26.70;97.00
37446;DHT22;23307;51.136;14.942;2023-06-24T13:30:42;26.40;97.90
37446;DHT22;23307;51.136;14.942;2023-06-24T13:33:07;26.60;97.60
37446;DHT22;23307;51.136;14.942;2023-06-24T13:35:33;26.40;97.90
37446;DHT22;23307;51.136;14.942;2023-06-24T13:37:58;26.60;96.80
37446;DHT22;23307;51.136;14.942;2023-06-24T13:40:24;26.70;97.20
37446;DHT22;23307;51.136;14.942;2023-06-24T13:42:50;26.80;95.50
37446;DHT22;23307;51.136;14.942;2023-06-24T13:45:16;26.70;95.70
37446;DHT22;23307;51.136;14.942;2023-06-24T13:47:41;26.60;95.60
37446;DHT22;23307;51.136;14.942;2023-06-24T13:50:07;26.50;96.10
37446;DHT22;23307;51.136;14.942;2023-06-24T13:52:33;26.90;95.90
37446;DHT22;23307;51.136;14.942;2023-06-24T13:54:58;27.20;96.30
37446;DHT22;23307;51.136;14.942;2023-06-24T13:57:24;27.50;94.40
37446;DHT22;23307;51.136;14.942;2023-06-24T13:59:49;27.40;94.30
37446;DHT22;23307;51.136;14.942;2023-06-24T14:02:15;27.40;94.40
37446;DHT22;23307;51.136;14.942;2023-06-24T14:04:40;27.50;94.80
37446;DHT22;23307;51.136;14.942;2023-06-24T14:07:07;27.70;93.90
37446;DHT22;23307;51.136;14.942;2023-06-24T14:09:33;27.90;94.00
37446;DHT22;23307;51.136;14.942;2023-06-24T14:11:59;27.90;92.60
37446;DHT22;23307;51.136;14.942;2023-06-24T14:14:24;28.10;91.50
37446;DHT22;23307;51.136;14.942;2023-06-24T14:16:50;27.90;90.90
37446;DHT22;23307;51.136;14.942;2023-06-24T14:19:15;27.60;90.80
37446;DHT22;23307;51.136;14.942;2023-06-24T14:21:41;27.60;92.40
37446;DHT22;23307;51.136;14.942;2023-06-24T14:24:07;28.10;91.50
37446;DHT22;23307;51.136;14.942;2023-06-24T14:26:35;28.20;90.60
37446;DHT22;23307;51.136;14.942;2023-06-24T14:29:01;28.40;90.70
37446;DHT22;23307;51.136;14.942;2023-06-24T14:31:26;28.40;90.90
37446;DHT22;23307;51.136;14.942;2023-06-24T14:33:52;28.60;89.20
37446;DHT22;23307;51.136;14.942;2023-06-24T14:36:17;28.70;88.20
37446;DHT22;23307;51.136;14.942;2023-06-24T14:38:43;28.80;88.90
37446;DHT22;23307;51.136;14.942;2023-06-24T14:41:10;28.80;87.10
37446;DHT22;23307;51.136;14.942;2023-06-24T14:43:36;29.00;87.30
37446;DHT22;23307;51.136;14.942;2023-06-24T14:46:01;28.80;85.00
37446;DHT22;23307;51.136;14.942;2023-06-24T14:48:27;28.50;83.70
37446;DHT22;23307;51.136;14.942;2023-06-24T14:50:53;28.20;82.60
37446;DHT22;23307;51.136;14.942;2023-06-24T14:53:18;28.00;83.40
37446;DHT22;23307;51.136;14.942;2023-06-24T14:55:45;27.90;84.40
37446;DHT22;23307;51.136;14.942;2023-06-24T14:58:10;28.10;83.00
37446;DHT22;23307;51.136;14.942;2023-06-24T15:00:36;28.00;85.10
37446;DHT22;23307;51.136;14.942;2023-06-24T15:03:01;28.20;83.80
37446;DHT22;23307;51.136;14.942;2023-06-24T15:05:27;28.10;82.10
37446;DHT22;23307;51.136;14.942;2023-06-24T15:07:52;28.10;84.00
37446;DHT22;23307;51.136;14.942;2023-06-24T15:10:18;28.20;82.10
37446;DHT22;23307;51.136;14.942;2023-06-24T15:12:43;28.00;82.10
37446;DHT22;23307;51.136;14.942;2023-06-24T15:15:09;28.10;85.90
37446;DHT22;23307;51.136;14.942;2023-06-24T15:17:34;28.40;81.10
37446;DHT22;23307;51.136;14.942;2023-06-24T15:20:08;28.10;82.50
37446;DHT22;23307;51.136;14.942;2023-06-24T15:22:34;28.10;83.50
37446;DHT22;23307;51.136;14.942;2023-06-24T15:25:00;28.50;81.70
37446;DHT22;23307;51.136;14.942;2023-06-24T15:27:25;28.50;82.50